createdAt,value
2022-12-03T00:00:12.212Z,15.00
2022-12-03T00:02:40.769Z,15.04
2022-12-03T00:05:07.932Z,14.75
2022-12-03T00:07:35.245Z,15.18
2022-12-03T00:10:05.262Z,15.11
2022-12-03T00:12:32.700Z,14.98
2022-12-03T00:14:59.773Z,15.14
2022-12-03T00:17:26.838Z,15.63
2022-12-03T00:19:53.595Z,14.95
2022-12-03T00:22:20.412Z,15.12
2022-12-03T00:24:47.181Z,15.06
2022-12-03T00:27:13.936Z,14.74
2022-12-03T00:29:41.020Z,14.81
2022-12-03T00:32:09.240Z,14.57
2022-12-03T00:34:37.295Z,15.65
2022-12-03T00:37:04.190Z,16.32
2022-12-03T00:39:32.849Z,16.54
2022-12-03T00:42:02.420Z,16.33
2022-12-03T00:44:29.511Z,16.60
2022-12-03T00:46:59.142Z,15.98
2022-12-03T00:49:26.303Z,15.34
2022-12-03T00:51:53.375Z,15.63
2022-12-03T00:54:20.138Z,15.15
2022-12-03T00:56:49.613Z,14.52
2022-12-03T00:59:16.409Z,13.76
2022-12-03T01:01:43.194Z,14.50
2022-12-03T01:04:10.026Z,14.73
2022-12-03T01:06:37.069Z,14.23
2022-12-03T01:09:04.173Z,13.82
2022-12-03T01:11:31.224Z,14.92
2022-12-03T01:13:57.989Z,15.75
2022-12-03T01:16:27.928Z,15.45
2022-12-03T01:18:54.785Z,14.90
2022-12-03T01:21:21.935Z,14.86
2022-12-03T01:23:48.758Z,14.97
2022-12-03T01:26:15.828Z,14.84
2022-12-03T01:28:45.485Z,14.81
2022-12-03T01:31:12.651Z,15.14
2022-12-03T01:33:40.556Z,14.66
2022-12-03T01:36:10.057Z,15.18
2022-12-03T01:38:38.068Z,15.45
2022-12-03T01:41:11.528Z,15.31
2022-12-03T01:43:39.929Z,15.54
2022-12-03T01:46:07.438Z,15.90
2022-12-03T01:48:35.116Z,15.84
2022-12-03T01:51:02.139Z,15.78
2022-12-03T01:53:29.203Z,15.56
2022-12-03T01:55:59.014Z,15.79
2022-12-03T01:58:26.825Z,16.13
2022-12-03T02:00:57.888Z,15.08
2022-12-03T02:03:25.507Z,15.57
2022-12-03T02:05:52.452Z,15.92
2022-12-03T02:08:38.119Z,15.56
2022-12-03T02:11:18.427Z,15.92
2022-12-03T02:13:45.495Z,16.21
2022-12-03T02:16:12.730Z,16.46
2022-12-03T02:18:39.493Z,15.98
2022-12-03T02:21:29.335Z,16.32
2022-12-03T02:24:04.491Z,16.49
2022-12-03T02:26:31.578Z,16.79
2022-12-03T02:28:58.671Z,16.36
2022-12-03T02:31:25.522Z,15.98
2022-12-03T02:33:52.728Z,16.96
2022-12-03T02:36:19.900Z,16.89
2022-12-03T02:38:46.660Z,16.96
2022-12-03T02:41:14.058Z,16.92
2022-12-03T02:43:41.156Z,16.51
2022-12-03T02:46:10.616Z,16.94
2022-12-03T02:48:38.245Z,16.69
2022-12-03T02:51:06.865Z,17.52
2022-12-03T02:53:38.660Z,17.51
2022-12-03T02:56:05.840Z,17.52
2022-12-03T02:58:32.666Z,17.39
2022-12-03T03:00:59.572Z,17.63
2022-12-03T03:03:27.197Z,18.13
2022-12-03T03:05:54.070Z,18.10
2022-12-03T03:08:21.069Z,18.60
2022-12-03T03:10:47.818Z,18.58
2022-12-03T03:13:16.100Z,18.24
2022-12-03T03:15:42.885Z,17.82
2022-12-03T03:18:10.531Z,18.20
2022-12-03T03:20:40.097Z,19.02
2022-12-03T03:23:17.649Z,18.51
2022-12-03T03:25:56.668Z,18.29
2022-12-03T03:28:23.380Z,17.85
2022-12-03T03:30:50.504Z,18.16
2022-12-03T03:33:17.645Z,17.99
2022-12-03T03:35:45.692Z,17.64
2022-12-03T03:38:16.671Z,18.01
2022-12-03T03:40:45.433Z,17.91
2022-12-03T03:43:13.452Z,17.62
2022-12-03T03:45:41.622Z,18.30
2022-12-03T03:48:08.793Z,17.90
2022-12-03T03:50:35.539Z,18.05
2022-12-03T03:53:02.638Z,18.20
2022-12-03T03:55:29.998Z,17.88
2022-12-03T03:57:57.154Z,17.50
2022-12-03T04:00:24.639Z,18.11
2022-12-03T04:02:52.756Z,17.99
2022-12-03T04:05:21.850Z,17.97
2022-12-03T04:07:48.945Z,17.84
2022-12-03T04:10:17.003Z,18.20
2022-12-03T04:13:04.341Z,17.32
2022-12-03T04:15:31.396Z,18.28
2022-12-03T04:18:07.595Z,17.35
2022-12-03T04:20:34.467Z,17.11
2022-12-03T04:23:04.278Z,17.67
2022-12-03T04:25:31.356Z,17.50
2022-12-03T04:27:58.164Z,17.70
2022-12-03T04:30:25.333Z,17.93
2022-12-03T04:32:55.055Z,17.13
2022-12-03T04:35:22.153Z,16.63
2022-12-03T04:37:49.058Z,16.55
2022-12-03T04:40:16.117Z,16.24
2022-12-03T04:42:43.181Z,15.76
2022-12-03T04:45:11.156Z,16.38
2022-12-03T04:47:40.047Z,15.74
2022-12-03T04:50:07.815Z,15.68
2022-12-03T04:52:34.660Z,15.55
2022-12-03T04:55:01.777Z,15.88
2022-12-03T04:57:29.246Z,16.12
2022-12-03T04:59:56.265Z,16.20
2022-12-03T05:02:23.063Z,16.14
2022-12-03T05:04:50.175Z,15.49
2022-12-03T05:07:19.582Z,16.13
2022-12-03T05:09:46.643Z,16.27
2022-12-03T05:12:13.681Z,15.92
2022-12-03T05:14:40.428Z,16.14
2022-12-03T05:17:07.561Z,15.42
2022-12-03T05:19:34.473Z,15.92
2022-12-03T05:22:02.312Z,15.20
2022-12-03T05:24:29.230Z,15.56
2022-12-03T05:26:58.799Z,15.27
2022-12-03T05:29:25.871Z,15.18
2022-12-03T05:31:52.965Z,14.44
2022-12-03T05:34:21.003Z,14.23
2022-12-03T05:36:50.592Z,14.08
2022-12-03T05:39:18.639Z,14.28
2022-12-03T05:41:45.694Z,14.25
2022-12-03T05:44:16.251Z,13.95
2022-12-03T05:46:48.406Z,13.56
2022-12-03T05:49:17.975Z,13.98
2022-12-03T05:51:45.055Z,14.27
2022-12-03T05:54:12.088Z,14.46
2022-12-03T05:56:39.153Z,14.38
2022-12-03T05:59:06.232Z,13.74
2022-12-03T06:01:33.706Z,13.60
2022-12-03T06:04:00.915Z,13.50
2022-12-03T06:06:27.773Z,13.36
2022-12-03T06:08:54.837Z,12.88
2022-12-03T06:11:23.120Z,12.78
2022-12-03T06:13:50.297Z,12.70
2022-12-03T06:16:17.474Z,12.49
2022-12-03T06:18:44.626Z,12.19
2022-12-03T06:21:11.404Z,11.87
2022-12-03T06:23:38.252Z,11.75
2022-12-03T06:26:05.255Z,11.98
2022-12-03T06:28:32.417Z,12.17
2022-12-03T06:30:59.515Z,12.37
2022-12-03T06:33:26.624Z,12.54
2022-12-03T06:35:53.678Z,13.11
2022-12-03T06:38:20.776Z,13.08
2022-12-03T06:40:48.729Z,12.38
2022-12-03T06:43:15.848Z,12.46
2022-12-03T06:45:47.519Z,12.27
2022-12-03T06:48:14.801Z,12.28
2022-12-03T06:50:41.986Z,12.36
2022-12-03T06:53:09.387Z,12.92
2022-12-03T06:55:36.171Z,13.18
2022-12-03T06:58:02.976Z,13.06
2022-12-03T07:00:32.648Z,13.25
2022-12-03T07:03:00.185Z,12.92
2022-12-03T07:05:27.112Z,13.31
2022-12-03T07:07:54.363Z,13.42
2022-12-03T07:10:21.728Z,13.63
2022-12-03T07:12:51.206Z,13.22
2022-12-03T07:15:18.292Z,13.16
2022-12-03T07:17:45.353Z,13.41
2022-12-03T07:20:15.034Z,13.28
2022-12-03T07:22:41.820Z,12.72
2022-12-03T07:25:11.587Z,12.60
2022-12-03T07:27:38.856Z,12.70
2022-12-03T07:30:07.541Z,13.06
2022-12-03T07:32:35.426Z,13.29
2022-12-03T07:35:03.579Z,12.98
2022-12-03T07:37:30.431Z,13.31
2022-12-03T07:39:57.592Z,13.38
2022-12-03T07:42:24.665Z,12.65
2022-12-03T07:44:52.034Z,12.71
2022-12-03T07:47:19.148Z,12.34
2022-12-03T07:49:48.882Z,12.94
2022-12-03T07:52:18.444Z,12.26
2022-12-03T07:54:45.657Z,12.75
2022-12-03T07:57:15.161Z,12.64
2022-12-03T07:59:42.696Z,13.04
2022-12-03T08:02:09.962Z,12.98
2022-12-03T08:04:37.712Z,12.88
2022-12-03T08:07:04.518Z,12.52
2022-12-03T08:09:31.649Z,12.84
2022-12-03T08:11:58.822Z,12.28
2022-12-03T08:14:26.469Z,12.82
2022-12-03T08:16:53.289Z,13.93
2022-12-03T08:19:20.372Z,13.57
2022-12-03T08:21:47.448Z,13.77
2022-12-03T08:24:15.785Z,14.28
2022-12-03T08:26:43.864Z,14.99
2022-12-03T08:29:12.249Z,14.86
2022-12-03T08:31:39.822Z,15.53
2022-12-03T08:34:22.136Z,15.12
2022-12-03T08:36:56.899Z,15.36
2022-12-03T08:39:32.683Z,15.64
2022-12-03T08:42:22.524Z,16.15
2022-12-03T08:44:52.628Z,16.22
2022-12-03T08:47:20.418Z,17.35
2022-12-03T08:50:08.017Z,16.25
2022-12-03T08:52:34.836Z,16.80
2022-12-03T08:55:10.685Z,16.87
2022-12-03T08:57:40.776Z,16.45
2022-12-03T09:00:34.042Z,16.51
2022-12-03T09:03:01.858Z,16.39
2022-12-03T09:05:30.416Z,16.76
2022-12-03T09:07:57.513Z,16.81
2022-12-03T09:10:24.382Z,17.23
2022-12-03T09:12:52.167Z,17.43
2022-12-03T09:15:18.975Z,17.51
2022-12-03T09:17:45.957Z,17.27
2022-12-03T09:20:13.106Z,17.29
2022-12-03T09:22:42.624Z,15.52
2022-12-03T09:25:10.157Z,16.18
2022-12-03T09:27:39.821Z,15.95
2022-12-03T09:30:08.126Z,16.78
2022-12-03T09:32:35.393Z,16.77
2022-12-03T09:35:02.194Z,16.42
2022-12-03T09:37:29.181Z,16.49
2022-12-03T09:39:56.389Z,16.38
2022-12-03T09:42:23.213Z,16.44
2022-12-03T09:44:51.930Z,16.53
2022-12-03T09:47:20.013Z,16.70
2022-12-03T09:49:47.489Z,16.99
2022-12-03T09:52:22.561Z,17.23
2022-12-03T09:54:49.465Z,16.79
2022-12-03T09:57:16.296Z,16.85
2022-12-03T09:59:43.132Z,17.34
2022-12-03T10:02:29.445Z,17.72
2022-12-03T10:04:57.065Z,18.00
2022-12-03T10:07:26.184Z,17.89
2022-12-03T10:09:53.511Z,17.74
2022-12-03T10:12:22.893Z,16.68
2022-12-03T10:14:50.108Z,16.54
2022-12-03T10:17:17.035Z,17.06
2022-12-03T10:19:43.769Z,16.26
2022-12-03T10:22:11.453Z,17.10
2022-12-03T10:24:41.036Z,17.20
2022-12-03T10:27:24.652Z,16.88
2022-12-03T10:29:58.960Z,17.50
2022-12-03T10:32:27.006Z,17.09
2022-12-03T10:35:09.896Z,17.09
2022-12-03T10:37:36.755Z,17.21
2022-12-03T10:40:12.565Z,17.89
2022-12-03T10:42:40.245Z,17.93
2022-12-03T10:45:27.281Z,17.94
2022-12-03T10:48:13.174Z,17.91
2022-12-03T10:50:50.634Z,17.76
2022-12-03T10:53:17.860Z,17.50
2022-12-03T10:55:45.060Z,17.68
2022-12-03T10:58:22.909Z,17.78
2022-12-03T11:00:52.858Z,18.46
2022-12-03T11:03:23.320Z,18.71
2022-12-03T11:05:50.565Z,18.79
2022-12-03T11:08:24.971Z,18.26
2022-12-03T11:11:01.682Z,18.21
2022-12-03T11:13:44.400Z,18.16
2022-12-03T11:16:11.159Z,18.65
2022-12-03T11:18:49.884Z,18.67
2022-12-03T11:21:16.933Z,17.68
2022-12-03T11:24:03.277Z,17.82
2022-12-03T11:26:29.983Z,17.57
2022-12-03T11:28:57.691Z,18.60
2022-12-03T11:32:02.797Z,17.65
2022-12-03T11:34:35.151Z,18.34
2022-12-03T11:37:10.677Z,18.52
2022-12-03T11:39:52.857Z,18.33
2022-12-03T11:42:23.135Z,18.89
2022-12-03T11:45:07.250Z,17.94
2022-12-03T11:47:48.421Z,18.78
2022-12-03T11:50:24.651Z,18.66
2022-12-03T11:53:25.280Z,18.42
2022-12-03T11:56:04.591Z,19.07
2022-12-03T11:58:39.168Z,18.94
2022-12-03T12:01:07.161Z,19.27
2022-12-03T12:03:43.171Z,19.24
2022-12-03T12:06:28.073Z,19.01
2022-12-03T12:08:56.792Z,18.65
2022-12-03T12:11:30.867Z,18.64
2022-12-03T12:14:18.506Z,18.88
2022-12-03T12:16:48.280Z,18.68
2022-12-03T12:19:30.425Z,18.87
2022-12-03T12:22:25.362Z,18.26
2022-12-03T12:25:02.218Z,19.49
2022-12-03T12:27:39.990Z,19.79
2022-12-03T12:30:20.849Z,19.75
2022-12-03T12:33:09.192Z,19.17
2022-12-03T12:35:35.889Z,18.79
2022-12-03T12:38:14.856Z,18.39
2022-12-03T12:40:43.047Z,18.32
2022-12-03T12:43:25.624Z,18.67
2022-12-03T12:45:54.876Z,18.33
2022-12-03T12:48:36.897Z,18.69
2022-12-03T12:51:10.300Z,18.82
2022-12-03T12:53:37.492Z,18.75
2022-12-03T12:56:21.561Z,19.69
2022-12-03T12:58:48.723Z,19.41
2022-12-03T13:01:26.985Z,19.62
2022-12-03T13:03:53.787Z,19.52
2022-12-03T13:06:31.118Z,19.70
2022-12-03T13:08:58.223Z,19.15
2022-12-03T13:11:27.926Z,19.56
2022-12-03T13:13:55.104Z,18.73
2022-12-03T13:16:32.278Z,19.52
2022-12-03T13:18:59.751Z,19.40
2022-12-03T13:21:43.024Z,20.12
2022-12-03T13:24:31.985Z,20.40
2022-12-03T13:27:22.908Z,19.94
2022-12-03T13:29:59.064Z,21.86
2022-12-03T13:32:47.660Z,21.37
2022-12-03T13:35:31.188Z,21.23
2022-12-03T13:37:58.692Z,21.24
2022-12-03T13:40:40.841Z,21.29
2022-12-03T13:43:17.052Z,20.50
2022-12-03T13:45:44.230Z,21.61
2022-12-03T13:48:30.837Z,21.30
2022-12-03T13:51:02.012Z,21.81
2022-12-03T13:53:48.625Z,21.78
2022-12-03T13:56:21.048Z,21.92
2022-12-03T13:58:48.230Z,22.26
2022-12-03T14:01:15.368Z,22.54
2022-12-03T14:03:42.514Z,23.05
2022-12-03T14:06:10.373Z,21.97
2022-12-03T14:08:37.084Z,22.55
2022-12-03T14:11:06.825Z,23.17
2022-12-03T14:13:33.669Z,23.00
2022-12-03T14:16:00.862Z,22.63
2022-12-03T14:18:27.752Z,23.87
2022-12-03T14:20:54.933Z,23.84
2022-12-03T14:23:24.712Z,22.80
2022-12-03T14:25:51.962Z,23.44
2022-12-03T14:28:19.009Z,23.95
2022-12-03T14:30:45.757Z,23.93
2022-12-03T14:33:13.169Z,23.50
2022-12-03T14:35:41.094Z,23.58
2022-12-03T14:38:10.616Z,24.62
2022-12-03T14:40:40.145Z,24.40
2022-12-03T14:43:07.164Z,24.41
2022-12-03T14:45:36.682Z,24.30
2022-12-03T14:48:03.778Z,24.88
2022-12-03T14:50:30.604Z,24.71
2022-12-03T14:52:57.644Z,25.38
2022-12-03T14:55:24.540Z,24.26
2022-12-03T14:57:51.728Z,24.59
2022-12-03T15:00:19.171Z,23.96
2022-12-03T15:02:46.063Z,24.78
2022-12-03T15:05:13.894Z,24.15
2022-12-03T15:07:41.044Z,23.78
2022-12-03T15:10:09.445Z,23.57
2022-12-03T15:12:36.668Z,23.25
2022-12-03T15:15:04.147Z,23.08
2022-12-03T15:17:32.138Z,22.94
2022-12-03T15:20:00.442Z,23.40
2022-12-03T15:22:28.551Z,23.56
2022-12-03T15:24:55.624Z,23.57
2022-12-03T15:27:22.386Z,24.16
2022-12-03T15:29:49.198Z,24.34
2022-12-03T15:32:22.001Z,24.30
2022-12-03T15:34:51.515Z,24.96
2022-12-03T15:37:18.656Z,24.32
2022-12-03T15:39:52.719Z,25.30
2022-12-03T15:42:20.598Z,24.91
2022-12-03T15:44:47.360Z,25.00
2022-12-03T15:47:14.094Z,24.36
2022-12-03T15:49:40.859Z,24.55
2022-12-03T15:52:09.973Z,24.43
2022-12-03T15:54:37.049Z,24.03
2022-12-03T15:57:04.180Z,24.25
2022-12-03T15:59:31.427Z,23.28
2022-12-03T16:01:58.246Z,23.86
2022-12-03T16:04:25.620Z,24.18
2022-12-03T16:06:52.664Z,24.25
2022-12-03T16:09:25.243Z,24.75
2022-12-03T16:11:55.273Z,24.87
2022-12-03T16:14:22.420Z,24.13
2022-12-03T16:16:49.251Z,24.04
2022-12-03T16:19:16.318Z,23.47
2022-12-03T16:21:43.394Z,23.28
2022-12-03T16:24:10.251Z,24.13
2022-12-03T16:26:37.250Z,23.25
2022-12-03T16:29:04.321Z,23.39
2022-12-03T16:31:31.197Z,24.17
2022-12-03T16:33:58.220Z,23.59
2022-12-03T16:36:24.932Z,23.49
2022-12-03T16:38:51.652Z,23.41
2022-12-03T16:41:18.502Z,23.63
2022-12-03T16:43:45.802Z,23.80
2022-12-03T16:46:12.719Z,23.20
2022-12-03T16:48:39.439Z,23.83
2022-12-03T16:51:06.528Z,24.45
2022-12-03T16:53:33.252Z,24.42
2022-12-03T16:56:00.684Z,23.10
2022-12-03T16:58:27.517Z,27.14
2022-12-03T17:00:55.511Z,23.08
2022-12-03T17:03:22.517Z,23.72
2022-12-03T17:05:49.755Z,24.18
2022-12-03T17:08:16.702Z,23.15
2022-12-03T17:10:43.756Z,23.73
2022-12-03T17:13:11.020Z,24.88
2022-12-03T17:15:38.573Z,23.31
2022-12-03T17:18:05.744Z,23.94
2022-12-03T17:20:33.054Z,24.24
2022-12-03T17:22:59.984Z,23.59
2022-12-03T17:25:26.937Z,23.04
2022-12-03T17:27:53.811Z,23.25
2022-12-03T17:30:21.320Z,23.38
2022-12-03T17:32:48.370Z,23.48
2022-12-03T17:35:15.084Z,23.42
2022-12-03T17:37:42.257Z,23.27
2022-12-03T17:40:11.971Z,23.62
2022-12-03T17:42:38.675Z,24.00
2022-12-03T17:45:07.354Z,24.33
2022-12-03T17:47:34.249Z,23.72
2022-12-03T17:50:01.942Z,26.15
2022-12-03T17:52:28.726Z,23.43
2022-12-03T17:55:10.916Z,23.91
2022-12-03T17:57:38.853Z,24.50
2022-12-03T18:00:11.510Z,24.63
2022-12-03T18:02:38.388Z,39.62
2022-12-03T18:05:05.965Z,23.98
2022-12-03T18:07:33.379Z,24.57
2022-12-03T18:10:01.990Z,26.56
2022-12-03T18:12:28.949Z,24.35
2022-12-03T18:14:55.892Z,30.64
2022-12-03T18:17:22.614Z,27.42
2022-12-03T18:19:50.487Z,63.34
2022-12-03T18:22:17.529Z,40.24
2022-12-03T18:24:46.265Z,23.99
2022-12-03T18:27:14.479Z,24.42
2022-12-03T18:29:41.332Z,26.38
2022-12-03T18:32:27.114Z,27.92
2022-12-03T18:34:56.637Z,30.43
2022-12-03T18:37:27.141Z,23.84
2022-12-03T18:39:54.106Z,23.45
2022-12-03T18:42:21.602Z,23.69
2022-12-03T18:44:49.953Z,23.16
2022-12-03T18:47:19.202Z,25.47
2022-12-03T18:49:45.944Z,28.65
2022-12-03T18:52:13.841Z,23.82
2022-12-03T18:54:40.545Z,25.22
2022-12-03T18:57:07.296Z,23.70
2022-12-03T18:59:34.076Z,25.42
2022-12-03T19:02:01.200Z,24.11
2022-12-03T19:04:28.020Z,23.11
2022-12-03T19:06:55.208Z,23.16
2022-12-03T19:09:21.925Z,23.58
2022-12-03T19:11:49.791Z,23.77
2022-12-03T19:14:16.819Z,23.61
2022-12-03T19:16:43.621Z,23.26
2022-12-03T19:19:14.480Z,24.10
2022-12-03T19:21:41.522Z,23.30
2022-12-03T19:24:25.256Z,23.30
2022-12-03T19:26:52.496Z,23.20
2022-12-03T19:29:19.326Z,22.98
2022-12-03T19:31:46.149Z,23.45
2022-12-03T19:34:13.955Z,26.98
2022-12-03T19:36:40.873Z,37.13
2022-12-03T19:39:07.894Z,37.67
2022-12-03T19:41:34.973Z,22.73
2022-12-03T19:44:05.136Z,22.29
2022-12-03T19:46:36.209Z,23.01
2022-12-03T19:49:03.000Z,22.90
2022-12-03T19:51:35.043Z,29.80
2022-12-03T19:54:06.672Z,23.94
2022-12-03T19:56:33.477Z,22.61
2022-12-03T19:59:00.482Z,23.06
2022-12-03T20:01:32.658Z,23.99
2022-12-03T20:04:00.791Z,47.81
2022-12-03T20:06:30.236Z,26.22
2022-12-03T20:09:01.852Z,48.93
2022-12-03T20:11:30.096Z,24.30
2022-12-03T20:13:58.981Z,23.89
2022-12-03T20:16:25.815Z,26.53
2022-12-03T20:18:56.250Z,22.51
2022-12-03T20:21:23.291Z,26.26
2022-12-03T20:23:52.854Z,68.70
2022-12-03T20:26:19.986Z,32.70
2022-12-03T20:28:47.957Z,23.43
2022-12-03T20:31:18.753Z,23.57
2022-12-03T20:33:47.831Z,22.76
2022-12-03T20:36:15.368Z,22.58
2022-12-03T20:38:42.222Z,21.49
2022-12-03T20:41:10.641Z,22.53
2022-12-03T20:43:37.376Z,22.29
2022-12-03T20:46:10.711Z,22.21
2022-12-03T20:48:37.702Z,22.49
2022-12-03T20:51:09.610Z,22.75
2022-12-03T20:53:36.781Z,22.35
2022-12-03T20:56:04.812Z,21.93
2022-12-03T20:58:31.633Z,22.34
2022-12-03T21:01:18.357Z,22.91
2022-12-03T21:03:46.189Z,22.14
2022-12-03T21:06:13.446Z,22.58
2022-12-03T21:08:42.700Z,23.50
2022-12-03T21:11:13.938Z,22.81
2022-12-03T21:13:41.695Z,23.21
2022-12-03T21:16:12.053Z,22.86
2022-12-03T21:18:39.447Z,22.31
2022-12-03T21:21:07.925Z,21.87
2022-12-03T21:23:34.936Z,22.60
2022-12-03T21:26:07.059Z,22.28
2022-12-03T21:28:34.151Z,22.06
2022-12-03T21:31:08.069Z,21.75
2022-12-03T21:33:36.362Z,21.98
2022-12-03T21:36:05.617Z,21.63
2022-12-03T21:38:33.112Z,21.76
2022-12-03T21:41:01.108Z,21.84
2022-12-03T21:43:28.685Z,22.01
2022-12-03T21:45:57.757Z,21.84
2022-12-03T21:48:25.038Z,21.07
2022-12-03T21:51:02.381Z,21.41
2022-12-03T21:53:29.926Z,21.84
2022-12-03T21:55:58.613Z,21.60
2022-12-03T21:58:26.204Z,21.64
2022-12-03T22:00:52.991Z,21.30
2022-12-03T22:03:20.270Z,21.51
2022-12-03T22:05:47.115Z,22.60
2022-12-03T22:08:13.989Z,22.33
2022-12-03T22:10:41.010Z,22.87
2022-12-03T22:13:07.883Z,22.72
2022-12-03T22:15:34.941Z,22.78
2022-12-03T22:18:02.181Z,23.51
2022-12-03T22:20:29.255Z,22.66
2022-12-03T22:22:56.235Z,22.76
2022-12-03T22:25:22.973Z,22.46
2022-12-03T22:27:49.812Z,22.98
2022-12-03T22:30:16.578Z,22.65
2022-12-03T22:32:45.481Z,22.83
2022-12-03T22:35:19.542Z,22.65
2022-12-03T22:37:47.355Z,22.70
2022-12-03T22:40:14.565Z,22.45
2022-12-03T22:42:46.372Z,22.56
2022-12-03T22:45:17.696Z,22.61
2022-12-03T22:47:45.456Z,22.19
2022-12-03T22:50:12.432Z,22.23
2022-12-03T22:52:39.344Z,21.63
2022-12-03T22:55:08.696Z,22.21
2022-12-03T22:57:35.823Z,22.29
2022-12-03T23:00:05.563Z,22.25
2022-12-03T23:02:33.333Z,22.99
2022-12-03T23:05:00.884Z,22.70
2022-12-03T23:07:30.943Z,22.21
2022-12-03T23:10:00.612Z,21.39
2022-12-03T23:12:27.747Z,20.86
2022-12-03T23:14:55.201Z,20.96
2022-12-03T23:17:22.796Z,20.73
2022-12-03T23:19:49.544Z,20.12
2022-12-03T23:22:16.793Z,21.28
2022-12-03T23:24:43.895Z,21.00
2022-12-03T23:27:10.654Z,19.43
2022-12-03T23:29:37.786Z,19.58
2022-12-03T23:32:05.101Z,19.56
2022-12-03T23:34:32.503Z,19.57
2022-12-03T23:36:59.641Z,19.04
2022-12-03T23:39:26.891Z,19.78
2022-12-03T23:41:53.969Z,20.23
2022-12-03T23:44:20.772Z,20.09
2022-12-03T23:46:47.604Z,20.24
2022-12-03T23:49:14.605Z,19.98
2022-12-03T23:51:41.475Z,19.85
2022-12-03T23:54:09.061Z,20.02
2022-12-03T23:56:36.198Z,20.24
2022-12-03T23:59:03.049Z,20.32
